Time;durP1;ratioP1;P1;durP2;ratioP2;P2;SDS_P1;SDS_P2;PMS_P1;PMS_P2;Temp;Humidity;BMP_temperature;BMP_pressure;BME280_temperature;BME280_humidity;BME280_pressure;Samples;Min_cycle;Max_cycle;Signal;HPM_P1;HPM_P2
2022/01/30 00:00:24;;;;;;;18.98;3.92;;;6.60;99.90;;;;;;5105067;27;20035;-75
2022/01/30 00:02:53;;;;;;;27.17;4.63;;;5.80;99.90;;;;;;5124144;27;20509;-75
2022/01/30 00:05:19;;;;;;;22.02;3.90;;;5.80;99.90;;;;;;5105012;27;20077;-75
2022/01/30 00:07:45;;;;;;;30.58;4.55;;;5.80;99.90;;;;;;5118681;27;20100;-76
2022/01/30 00:10:13;;;;;;;24.38;3.65;;;5.80;99.90;;;;;;5123133;27;20039;-75
2022/01/30 00:12:48;;;;;;;21.08;3.95;;;5.90;99.90;;;;;;5125350;27;20503;-75
2022/01/30 00:15:16;;;;;;;31.55;4.78;;;6.60;99.90;;;;;;5114308;27;20039;-75
2022/01/30 00:17:51;;;;;;;39.67;5.43;;;6.10;99.90;;;;;;5121778;27;20055;-75
2022/01/30 00:20:24;;;;;;;24.85;4.05;;;7.10;99.90;;;;;;5128357;27;20123;-75
2022/01/30 00:23:09;;;;;;;28.25;4.38;;;6.30;99.90;;;;;;5113804;27;20656;-75
2022/01/30 00:25:46;;;;;;;22.55;3.95;;;6.10;99.90;;;;;;5117242;27;20035;-75
2022/01/30 00:28:13;;;;;;;20.70;4.07;;;6.10;99.90;;;;;;5116188;27;20038;-74
2022/01/30 00:30:38;;;;;;;;;;;6.00;99.90;;;;;;5108658;27;20156;-75
2022/01/30 00:33:05;;;;;;;22.02;3.72;;;7.40;99.90;;;;;;5124570;27;20363;-75
2022/01/30 00:35:33;;;;;;;26.65;4.30;;;6.00;99.90;;;;;;5125335;27;20027;-75
2022/01/30 00:38:00;;;;;;;29.65;4.43;;;6.00;99.90;;;;;;5124680;27;20035;-75
2022/01/30 00:40:25;;;;;;;;;;;5.80;99.90;;;;;;5121658;27;20043;-75
2022/01/30 00:42:51;;;;;;;17.42;2.50;;;6.50;99.90;;;;;;5147541;27;20251;-75
2022/01/30 00:45:17;;;;;;;11.98;1.83;;;5.60;99.90;;;;;;5127464;27;20164;-74
2022/01/30 00:47:43;;;;;;;15.52;2.92;;;5.40;99.90;;;;;;5091744;27;20516;-75
2022/01/30 00:50:09;;;;;;;25.27;3.97;;;5.30;99.90;;;;;;5141835;27;20049;-75
2022/01/30 00:52:35;;;;;;;22.17;4.18;;;5.20;99.90;;;;;;5134839;27;20039;-75
2022/01/30 00:55:01;;;;;;;26.10;4.05;;;5.20;99.90;;;;;;5128580;27;20043;-75
2022/01/30 00:57:26;;;;;;;27.10;4.03;;;5.40;99.90;;;;;;5141962;27;20043;-75
2022/01/30 00:59:52;;;;;;;22.73;4.68;;;5.20;99.90;;;;;;5122850;27;20105;-75
2022/01/30 01:02:18;;;;;;;31.63;5.22;;;5.70;99.90;;;;;;5128689;27;20034;-75
2022/01/30 01:04:44;;;;;;;26.88;5.28;;;5.30;99.90;;;;;;5146629;27;20116;-75
2022/01/30 01:07:17;;;;;;;30.48;4.72;;;5.30;99.90;;;;;;5121754;27;20038;-75
2022/01/30 01:09:50;;;;;;;27.90;4.38;;;5.40;99.90;;;;;;5145292;27;20070;-75
2022/01/30 01:23:43;;;;;;;26.65;4.65;;;5.40;99.90;;;;;;5113082;27;20482;-75
2022/01/30 01:26:09;;;;;;;26.65;3.72;;;5.40;99.90;;;;;;5129022;27;21965;-75
2022/01/30 01:28:34;;;;;;;32.97;5.60;;;5.50;99.90;;;;;;5139830;27;20043;-76
2022/01/30 01:31:00;;;;;;;34.67;4.07;;;6.00;99.90;;;;;;5092643;27;20035;-75
2022/01/30 01:33:35;;;;;;;26.45;4.60;;;6.00;99.90;;;;;;5129076;27;20287;-75
2022/01/30 01:36:01;;;;;;;25.48;4.50;;;5.70;99.90;;;;;;5143168;27;20062;-75
2022/01/30 01:38:27;;;;;;;33.22;4.72;;;5.90;99.90;;;;;;5123189;27;20139;-75
2022/01/30 01:40:54;;;;;;;35.33;5.55;;;6.80;99.90;;;;;;5137232;27;20034;-75
2022/01/30 01:43:21;;;;;;;28.00;4.68;;;5.70;99.90;;;;;;5121142;27;20063;-75
2022/01/30 01:45:49;;;;;;;27.33;4.25;;;5.60;99.90;;;;;;5145567;27;20111;-75
2022/01/30 01:48:15;;;;;;;19.27;3.55;;;6.00;99.90;;;;;;5126105;27;20406;-75
2022/01/30 01:50:50;;;;;;;20.33;2.97;;;5.90;99.90;;;;;;5125859;27;20043;-75
2022/01/30 01:53:17;;;;;;;22.45;3.97;;;5.50;99.90;;;;;;5118660;27;20422;-75
2022/01/30 01:55:43;;;;;;;;;;;5.40;99.90;;;;;;5141401;27;20066;-75
2022/01/30 01:58:09;;;;;;;25.92;4.20;;;5.40;99.90;;;;;;5120565;27;20352;-75
2022/01/30 02:00:36;;;;;;;25.73;4.47;;;5.40;99.90;;;;;;5146221;27;20035;-75
2022/01/30 02:03:03;;;;;;;25.15;4.32;;;5.40;99.90;;;;;;5139857;27;20489;-75
2022/01/30 02:05:32;;;;;;;30.88;5.43;;;5.60;99.90;;;;;;5127783;27;20073;-75
2022/01/30 02:10:55;;;;;;;26.55;4.78;;;5.60;99.90;;;;;;5141770;27;20053;-75
2022/01/30 02:27:14;;;;;;;26.92;5.63;;;6.10;99.90;;;;;;5128331;27;20570;-75
2022/01/30 02:29:40;;;;;;;25.42;4.63;;;6.30;99.90;;;;;;5143036;27;20050;-75
2022/01/30 02:32:06;;;;;;;27.00;4.85;;;5.50;99.90;;;;;;5129862;27;20045;-75
2022/01/30 02:34:33;;;;;;;29.65;4.32;;;5.40;99.90;;;;;;5151758;27;20081;-75
2022/01/30 02:36:59;;;;;;;25.80;4.05;;;6.00;99.90;;;;;;5127848;27;20031;-75
2022/01/30 02:39:26;;;;;;;29.02;4.93;;;5.60;99.90;;;;;;5107770;27;20042;-75
2022/01/30 02:41:52;;;;;;;29.65;5.50;;;5.30;99.90;;;;;;5119791;27;20051;-75
2022/01/30 02:47:00;;;;;;;32.22;5.10;;;5.40;99.90;;;;;;5123142;27;20057;-75
2022/01/30 02:54:20;;;;;;;36.63;7.20;;;5.40;99.90;;;;;;5119586;27;20085;-75
2022/01/30 02:56:47;;;;;;;23.25;5.22;;;5.30;99.90;;;;;;5138033;27;20378;-75
2022/01/30 02:59:13;;;;;;;35.03;5.45;;;5.40;99.90;;;;;;5120127;27;20059;-75
2022/01/30 03:01:39;;;;;;;27.05;5.45;;;5.30;99.90;;;;;;5135673;27;20046;-75
2022/01/30 03:04:05;;;;;;;36.22;5.70;;;5.60;99.90;;;;;;5122175;27;20035;-75
2022/01/30 03:06:31;;;;;;;28.80;4.88;;;5.50;99.90;;;;;;5130718;27;20047;-76
2022/01/30 03:08:57;;;;;;;35.22;5.40;;;5.30;99.90;;;;;;5129801;27;20041;-75
2022/01/30 03:11:23;;;;;;;29.98;5.28;;;5.30;99.90;;;;;;5140571;27;20039;-75
2022/01/30 03:13:49;;;;;;;27.67;5.00;;;5.30;99.90;;;;;;5136566;27;20554;-75
2022/01/30 03:16:15;;;;;;;31.13;5.07;;;5.40;99.90;;;;;;5118176;27;20114;-75
2022/01/30 03:18:41;;;;;;;28.63;6.22;;;5.40;99.90;;;;;;5130366;27;20039;-75
2022/01/30 03:21:07;;;;;;;38.72;5.93;;;4.90;99.90;;;;;;5125216;27;20027;-75
2022/01/30 03:23:38;;;;;;;36.58;6.00;;;5.50;99.90;;;;;;5121567;27;20035;-75
2022/01/30 03:26:07;;;;;;;37.13;5.35;;;6.00;99.90;;;;;;5149079;27;20394;-75
2022/01/30 03:28:33;;;;;;;31.88;5.65;;;6.90;99.90;;;;;;5142734;27;20436;-75
2022/01/30 03:31:04;;;;;;;31.15;5.10;;;5.70;99.90;;;;;;5121612;27;20122;-76
2022/01/30 03:33:30;;;;;;;32.15;5.20;;;5.60;99.90;;;;;;5118847;27;20577;-75
2022/01/30 03:35:56;;;;;;;28.55;5.80;;;6.20;99.90;;;;;;5130094;27;20730;-75
2022/01/30 03:38:22;;;;;;;39.80;5.43;;;5.90;99.90;;;;;;5132805;27;20048;-76
2022/01/30 03:40:49;;;;;;;34.20;5.10;;;5.60;99.90;;;;;;5149688;27;20124;-75
2022/01/30 03:43:15;;;;;;;30.48;5.65;;;6.30;99.90;;;;;;5131215;27;20521;-76
2022/01/30 03:45:42;;;;;;;;;;;5.90;99.90;;;;;;5147575;27;20031;-75
2022/01/30 03:48:07;;;;;;;38.78;5.65;;;6.20;99.90;;;;;;5145492;27;19918;-75
2022/01/30 03:50:34;;;;;;;50.22;5.80;;;6.30;99.90;;;;;;5110565;27;20088;-75
2022/01/30 03:53:00;;;;;;;40.17;6.38;;;5.90;99.90;;;;;;5114109;27;20146;-75
2022/01/30 03:55:26;;;;;;;33.03;6.20;;;5.90;99.90;;;;;;5149320;27;20071;-75
2022/01/30 03:57:51;;;;;;;43.47;6.28;;;6.20;99.90;;;;;;5146432;27;20034;-75
2022/01/30 04:00:18;;;;;;;36.45;5.72;;;6.10;99.90;;;;;;5152862;27;20031;-75
2022/01/30 04:02:43;;;;;;;39.47;7.85;;;6.10;99.90;;;;;;5146991;27;20398;-75
2022/01/30 04:05:09;;;;;;;31.35;5.80;;;6.60;99.90;;;;;;5151347;27;20084;-75
2022/01/30 04:07:35;;;;;;;34.35;6.00;;;5.90;99.90;;;;;;5131516;27;20051;-75
2022/01/30 04:10:02;;;;;;;36.42;6.15;;;5.90;99.90;;;;;;5133835;27;20058;-76
2022/01/30 04:12:28;;;;;;;29.70;5.40;;;5.70;99.90;;;;;;5128462;27;20771;-76
2022/01/30 04:14:54;;;;;;;43.20;9.20;;;5.60;99.90;;;;;;5126090;27;20035;-76
2022/01/30 04:17:20;;;;;;;37.40;6.30;;;5.60;99.90;;;;;;5108409;27;20035;-75
2022/01/30 04:19:46;;;;;;;32.20;6.10;;;5.70;99.90;;;;;;5111703;27;20572;-75
2022/01/30 04:22:12;;;;;;;;;;;6.10;99.90;;;;;;5146974;27;20023;-75
2022/01/30 04:24:38;;;;;;;32.38;6.63;;;6.00;99.90;;;;;;5143119;27;19915;-75
2022/01/30 04:27:04;;;;;;;41.58;6.78;;;5.70;99.90;;;;;;5126360;27;20087;-75
2022/01/30 04:29:30;;;;;;;42.15;8.43;;;5.80;99.90;;;;;;5112009;27;20050;-75
2022/01/30 04:31:56;;;;;;;40.97;7.20;;;5.70;99.90;;;;;;5129751;27;20049;-76
2022/01/30 04:34:27;;;;;;;41.50;6.50;;;5.70;99.90;;;;;;5123701;27;20070;-76
2022/01/30 04:37:23;;;;;;;39.70;6.40;;;5.70;99.90;;;;;;5124438;27;20455;-75
2022/01/30 04:53:21;;;;;;;44.78;6.20;;;5.60;99.90;;;;;;5104984;27;20050;-75
2022/01/30 04:59:08;;;;;;;37.80;6.70;;;5.70;99.90;;;;;;5141899;27;20562;-75
2022/01/30 05:01:21;;;;;;;44.60;6.25;;;5.70;99.90;;;;;;5142286;27;20406;-75
2022/01/30 05:04:01;;;;;;;42.88;7.75;;;5.70;99.90;;;;;;5114102;27;20042;-75
2022/01/30 05:06:42;;;;;;;41.17;6.78;;;6.40;99.90;;;;;;5145084;27;20037;-76
2022/01/30 05:09:08;;;;;;;35.00;6.88;;;5.70;99.90;;;;;;5120916;27;20096;-75
2022/01/30 05:11:33;;;;;;;38.10;7.18;;;5.80;99.90;;;;;;5137303;27;20130;-75
2022/01/30 05:14:00;;;;;;;34.35;7.35;;;5.80;99.90;;;;;;5103909;27;20126;-75
2022/01/30 05:16:26;;;;;;;41.53;6.35;;;5.90;99.90;;;;;;5142105;27;20031;-75
2022/01/30 05:18:52;;;;;;;41.53;6.28;;;5.90;99.90;;;;;;5126957;27;20043;-75
2022/01/30 05:21:18;;;;;;;33.60;6.47;;;5.80;99.90;;;;;;5152799;27;20043;-75
2022/01/30 05:23:44;;;;;;;40.72;6.78;;;5.80;99.90;;;;;;5124225;27;20031;-75
2022/01/30 05:26:11;;;;;;;36.72;5.82;;;5.70;99.90;;;;;;5150366;27;20046;-75
2022/01/30 05:28:37;;;;;;;31.60;6.35;;;6.20;99.90;;;;;;5108497;27;20049;-76
2022/01/30 05:31:06;;;;;;;40.05;7.05;;;5.60;99.90;;;;;;5116806;27;20034;-76
2022/01/30 05:33:32;;;;;;;39.58;6.95;;;5.60;99.90;;;;;;5119766;27;20053;-76
2022/01/30 05:35:58;;;;;;;42.38;7.43;;;5.50;99.90;;;;;;5126486;27;20036;-76
2022/01/30 05:38:24;;;;;;;42.90;6.43;;;5.50;99.90;;;;;;5147411;27;20027;-76
2022/01/30 05:40:50;;;;;;;53.95;7.78;;;5.40;99.90;;;;;;5123062;27;20130;-76
2022/01/30 05:43:16;;;;;;;54.92;8.60;;;5.50;99.90;;;;;;5116655;27;20058;-75
2022/01/30 05:45:45;;;;;;;45.42;7.50;;;5.60;99.90;;;;;;5124462;27;20153;-76
2022/01/30 05:48:15;;;;;;;43.08;7.30;;;5.50;99.90;;;;;;5121721;27;20039;-76
2022/01/30 05:50:45;;;;;;;41.15;7.68;;;5.60;99.90;;;;;;5105640;27;20066;-76
2022/01/30 05:53:11;;;;;;;45.80;7.55;;;5.70;99.90;;;;;;5121719;27;20460;-75
2022/01/30 05:55:37;;;;;;;48.03;8.35;;;5.70;99.90;;;;;;5120741;27;20118;-76
2022/01/30 05:58:03;;;;;;;35.33;6.73;;;7.00;99.90;;;;;;5104262;27;20114;-75
2022/01/30 06:00:29;;;;;;;38.28;6.05;;;6.80;99.90;;;;;;5111300;27;20308;-75
2022/01/30 06:02:55;;;;;;;35.15;5.90;;;5.80;99.90;;;;;;5108057;27;20045;-75
2022/01/30 06:05:23;;;;;;;41.30;5.40;;;5.70;99.90;;;;;;5106146;27;20387;-75
2022/01/30 06:07:55;;;;;;;42.47;7.63;;;5.60;99.90;;;;;;5124228;27;20035;-76
2022/01/30 06:10:22;;;;;;;36.42;5.70;;;5.60;99.90;;;;;;5141528;27;20390;-76
2022/01/30 06:12:49;;;;;;;40.72;6.22;;;6.50;99.90;;;;;;5121594;27;20074;-76
2022/01/30 06:15:15;;;;;;;51.78;7.65;;;5.50;99.90;;;;;;5118343;27;20047;-76
2022/01/30 06:17:41;;;;;;;;;;;6.10;99.90;;;;;;5136828;27;20050;-76
2022/01/30 06:20:08;;;;;;;44.35;7.03;;;6.10;99.90;;;;;;5141398;27;19919;-76
2022/01/30 06:22:34;;;;;;;47.47;8.18;;;5.60;99.90;;;;;;5112102;27;20031;-76
2022/01/30 06:25:00;;;;;;;38.15;7.03;;;6.10;99.90;;;;;;5143327;27;20073;-76
2022/01/30 06:27:25;;;;;;;35.85;7.10;;;6.50;99.90;;;;;;5120744;27;20454;-75
2022/01/30 06:29:51;;;;;;;42.97;7.40;;;6.30;99.90;;;;;;5120054;27;20043;-75
2022/01/30 06:32:17;;;;;;;35.95;6.70;;;5.90;99.90;;;;;;5098283;27;20109;-76
2022/01/30 06:34:43;;;;;;;39.53;7.70;;;6.00;99.90;;;;;;5105538;27;20043;-76
2022/01/30 06:37:08;;;;;;;39.50;6.82;;;6.80;99.90;;;;;;5130843;27;20130;-76
2022/01/30 06:39:34;;;;;;;40.42;7.22;;;5.60;99.90;;;;;;5122765;27;20050;-75
2022/01/30 06:42:00;;;;;;;39.42;7.05;;;5.70;99.90;;;;;;5135620;27;20047;-76
2022/01/30 06:44:26;;;;;;;37.40;6.53;;;6.20;99.90;;;;;;5097703;27;20073;-75
2022/01/30 06:46:51;;;;;;;35.55;7.22;;;5.70;99.90;;;;;;5119332;27;20030;-76
2022/01/30 06:49:17;;;;;;;34.97;6.38;;;6.10;99.90;;;;;;5115928;27;20034;-76
2022/01/30 06:51:43;;;;;;;34.47;5.90;;;5.90;99.90;;;;;;5117200;27;20035;-76
2022/01/30 06:54:09;;;;;;;31.50;6.00;;;5.90;99.90;;;;;;5117475;27;20035;-76
2022/01/30 06:56:34;;;;;;;41.13;6.85;;;5.90;99.90;;;;;;5123316;27;20038;-76
2022/01/30 06:59:00;;;;;;;29.02;6.28;;;5.90;99.90;;;;;;5121338;27;20088;-76
2022/01/30 07:01:26;;;;;;;33.75;5.70;;;5.90;99.90;;;;;;5107620;27;20102;-76
2022/01/30 07:03:53;;;;;;;36.90;6.38;;;5.90;99.90;;;;;;5119228;27;20075;-75
2022/01/30 07:06:19;;;;;;;40.72;6.97;;;6.30;99.90;;;;;;5120228;27;20099;-76
2022/01/30 07:08:45;;;;;;;38.83;6.85;;;5.90;99.90;;;;;;5137490;27;20047;-76
2022/01/30 07:11:11;;;;;;;37.83;6.82;;;6.30;99.90;;;;;;5141230;27;20087;-76
2022/01/30 07:13:37;;;;;;;42.08;7.00;;;5.90;99.90;;;;;;5135872;27;20080;-76
2022/01/30 07:16:03;;;;;;;44.65;7.97;;;6.30;99.90;;;;;;5135418;27;20050;-76
2022/01/30 07:18:29;;;;;;;36.72;6.10;;;5.80;99.90;;;;;;5119306;27;20035;-76
2022/01/30 07:20:55;;;;;;;35.97;6.97;;;7.00;99.90;;;;;;5137754;27;20048;-76
2022/01/30 07:23:20;;;;;;;39.10;7.50;;;6.80;99.90;;;;;;5105447;28;20382;-76
2022/01/30 07:25:46;;;;;;;38.80;6.63;;;6.20;99.90;;;;;;5139113;27;20043;-76
2022/01/30 07:28:12;;;;;;;33.78;5.85;;;5.90;99.90;;;;;;5128609;27;20334;-76
2022/01/30 07:30:38;;;;;;;37.97;6.25;;;6.20;99.90;;;;;;5124393;27;20043;-76
2022/01/30 07:33:04;;;;;;;33.65;5.60;;;6.20;99.90;;;;;;5105099;28;20077;-75
2022/01/30 07:35:30;;;;;;;;;;;5.90;99.90;;;;;;5105187;28;20031;-75
2022/01/30 07:37:56;;;;;;;30.33;5.93;;;5.90;99.90;;;;;;5141626;27;19937;-76
2022/01/30 07:40:22;;;;;;;30.92;4.93;;;5.90;99.90;;;;;;5086174;27;20078;-75
2022/01/30 07:42:48;;;;;;;32.13;5.88;;;5.90;99.90;;;;;;5109573;27;20086;-75
2022/01/30 07:45:14;;;;;;;24.60;4.63;;;6.50;99.90;;;;;;5119682;27;20038;-75
2022/01/30 07:47:39;;;;;;;32.80;5.53;;;5.90;99.90;;;;;;5121497;27;20049;-76
2022/01/30 07:50:06;;;;;;;34.47;5.65;;;6.00;99.90;;;;;;5145728;27;20118;-76
2022/01/30 07:52:32;;;;;;;28.77;4.97;;;5.90;99.90;;;;;;5142806;27;20490;-76
2022/01/30 07:54:58;;;;;;;29.60;5.70;;;5.90;99.90;;;;;;5117304;27;20038;-75
2022/01/30 07:57:24;;;;;;;32.85;5.65;;;5.90;99.90;;;;;;5143247;27;20126;-76
2022/01/30 07:59:50;;;;;;;30.13;4.55;;;6.70;99.90;;;;;;5137400;27;20050;-76
2022/01/30 08:02:15;;;;;;;32.33;5.50;;;5.90;99.90;;;;;;5117054;27;20427;-76
2022/01/30 08:04:41;;;;;;;27.33;5.60;;;5.90;99.90;;;;;;5121637;27;20038;-75
2022/01/30 08:07:07;;;;;;;25.65;4.88;;;5.80;99.90;;;;;;5122651;27;20119;-76
2022/01/30 08:09:33;;;;;;;35.38;5.35;;;5.90;99.90;;;;;;5125752;27;20034;-75
2022/01/30 08:11:59;;;;;;;35.28;6.10;;;5.80;99.90;;;;;;5148842;27;20034;-76
2022/01/30 08:14:25;;;;;;;36.45;7.32;;;5.80;99.90;;;;;;5102562;27;20031;-74
2022/01/30 08:16:50;;;;;;;39.65;5.20;;;6.50;99.90;;;;;;5121689;27;20053;-75
2022/01/30 08:19:18;;;;;;;42.83;6.05;;;5.90;99.90;;;;;;5144028;27;20035;-73
2022/01/30 08:21:44;;;;;;;33.70;5.40;;;5.90;99.90;;;;;;5124794;27;20042;-73
2022/01/30 08:24:09;;;;;;;35.20;6.05;;;6.00;99.90;;;;;;5105867;27;20490;-73
2022/01/30 08:26:35;;;;;;;33.28;6.32;;;5.90;99.90;;;;;;5099838;27;20420;-73
2022/01/30 08:29:01;;;;;;;37.00;6.15;;;5.90;99.90;;;;;;5094008;27;20039;-73
2022/01/30 08:31:26;;;;;;;31.43;5.43;;;5.90;99.90;;;;;;5128437;27;20073;-73
2022/01/30 08:33:52;;;;;;;35.57;6.00;;;6.00;99.90;;;;;;5127599;27;20394;-73
2022/01/30 08:36:18;;;;;;;40.60;7.07;;;5.90;99.90;;;;;;5107994;27;20284;-74
2022/01/30 08:38:43;;;;;;;34.85;5.95;;;5.90;99.90;;;;;;5114278;27;20054;-74
2022/01/30 08:41:09;;;;;;;39.70;6.23;;;6.90;99.90;;;;;;5133013;27;20379;-73
2022/01/30 08:43:36;;;;;;;30.90;5.47;;;6.00;99.90;;;;;;5117516;27;20103;-73
2022/01/30 08:46:02;;;;;;;34.35;5.47;;;6.30;99.90;;;;;;5115016;27;20041;-74
2022/01/30 08:48:30;;;;;;;34.78;5.53;;;6.70;99.90;;;;;;5119499;27;20031;-73
2022/01/30 08:50:56;;;;;;;37.00;6.03;;;6.70;99.90;;;;;;5132756;27;20701;-74
2022/01/30 08:53:21;;;;;;;31.80;5.57;;;6.60;99.90;;;;;;5104310;27;20035;-74
2022/01/30 08:55:47;;;;;;;31.23;5.13;;;6.50;99.90;;;;;;5137606;27;20031;-74
2022/01/30 08:58:13;;;;;;;30.73;6.30;;;6.40;99.90;;;;;;5135740;27;20051;-74
2022/01/30 09:00:42;;;;;;;33.22;5.50;;;6.30;99.90;;;;;;5128700;27;20415;-74
2022/01/30 09:03:08;;;;;;;32.80;6.60;;;6.20;99.90;;;;;;5123599;27;20077;-73
2022/01/30 09:05:34;;;;;;;31.10;5.45;;;6.20;99.90;;;;;;5104963;27;20074;-73
2022/01/30 09:08:04;;;;;;;44.63;6.53;;;7.00;99.90;;;;;;5117925;27;20031;-73
2022/01/30 09:10:34;;;;;;;46.65;6.13;;;6.60;99.90;;;;;;5099716;27;20031;-75
2022/01/30 09:13:00;;;;;;;41.42;6.90;;;7.00;99.90;;;;;;5112847;27;20070;-73
2022/01/30 09:15:26;;;;;;;38.97;6.13;;;7.30;99.90;;;;;;5107606;27;20043;-73
2022/01/30 09:17:56;;;;;;;38.97;6.00;;;7.70;99.90;;;;;;5113928;27;20041;-73
2022/01/30 09:20:23;;;;;;;30.50;5.88;;;7.60;99.90;;;;;;5097975;27;20081;-72
2022/01/30 09:22:51;;;;;;;38.33;6.10;;;7.40;99.90;;;;;;5111624;27;20050;-72
2022/01/30 09:25:17;;;;;;;32.90;5.72;;;7.20;99.90;;;;;;5113617;27;20061;-72
2022/01/30 09:27:45;;;;;;;27.15;5.82;;;7.20;99.90;;;;;;5112916;27;20099;-72
2022/01/30 09:30:12;;;;;;;27.20;5.63;;;7.50;99.90;;;;;;5113914;27;20047;-72
2022/01/30 09:32:37;;;;;;;29.50;6.03;;;7.90;99.90;;;;;;5111963;27;20045;-73
2022/01/30 09:35:06;;;;;;;32.45;5.43;;;8.20;99.90;;;;;;5107752;27;20110;-73
2022/01/30 09:37:32;;;;;;;29.27;5.35;;;8.30;99.90;;;;;;5087768;27;20057;-72
2022/01/30 09:39:58;;;;;;;28.42;4.78;;;8.50;99.90;;;;;;5106115;27;20035;-73
2022/01/30 09:42:24;;;;;;;25.45;5.07;;;8.70;99.90;;;;;;5085594;27;20050;-72
2022/01/30 09:44:50;;;;;;;32.88;5.32;;;9.00;99.90;;;;;;5109350;27;20047;-72
2022/01/30 09:47:17;;;;;;;29.38;5.97;;;9.20;99.90;;;;;;5081981;27;20093;-73
2022/01/30 09:49:51;;;;;;;28.80;5.10;;;9.30;99.90;;;;;;5116576;27;20046;-72
2022/01/30 09:52:18;;;;;;;29.08;5.63;;;9.00;99.90;;;;;;5112408;27;20508;-72
2022/01/30 09:54:44;;;;;;;29.30;6.20;;;8.70;99.90;;;;;;5111110;27;20051;-72
2022/01/30 09:57:10;;;;;;;;;;;8.80;99.90;;;;;;5109307;27;20035;-72
2022/01/30 09:59:36;;;;;;;35.38;6.05;;;9.20;99.90;;;;;;5119316;27;19919;-74
2022/01/30 10:02:06;;;;;;;41.00;6.70;;;9.40;99.90;;;;;;5129957;27;20117;-73
2022/01/30 10:04:33;;;;;;;27.33;5.35;;;9.20;99.90;;;;;;5120586;27;20393;-74
2022/01/30 10:07:08;;;;;;;29.48;5.63;;;9.10;99.90;;;;;;5105641;27;20329;-75
2022/01/30 10:09:37;;;;;;;31.02;5.72;;;9.00;99.90;;;;;;5126551;27;20070;-75
2022/01/30 10:15:08;;;;;;;28.70;5.18;;;9.70;99.90;;;;;;5107065;27;20570;-75
2022/01/30 10:17:47;;;;;;;38.38;6.50;;;10.00;99.90;;;;;;5087978;27;20047;-75
2022/01/30 10:20:15;;;;;;;26.75;5.55;;;10.50;99.90;;;;;;5103948;27;20071;-74
2022/01/30 10:22:58;;;;;;;27.08;5.32;;;10.70;99.90;;;;;;5093075;27;20031;-75
2022/01/30 10:25:33;;;;;;;28.00;5.22;;;10.70;99.90;;;;;;5108433;27;20367;-75
2022/01/30 10:28:19;;;;;;;30.00;5.90;;;10.40;99.90;;;;;;5109586;27;20035;-76
2022/01/30 10:30:46;;;;;;;28.00;5.55;;;9.60;99.90;;;;;;5102490;27;20117;-75
2022/01/30 10:33:14;;;;;;;31.63;6.30;;;9.10;99.90;;;;;;5128401;27;20077;-75
2022/01/30 10:35:57;;;;;;;25.73;5.88;;;8.70;99.90;;;;;;5116131;27;20035;-75
2022/01/30 10:38:27;;;;;;;33.42;6.57;;;8.40;99.90;;;;;;5120296;27;20038;-75
2022/01/30 10:41:00;;;;;;;34.80;7.32;;;8.20;99.90;;;;;;5132290;27;20676;-74
2022/01/30 10:44:04;;;;;;;38.15;6.18;;;8.00;99.90;;;;;;5122281;27;20118;-74
2022/01/30 10:46:46;;;;;;;29.55;6.13;;;8.10;99.90;;;;;;5085821;28;20043;-74
2022/01/30 10:49:20;;;;;;;27.13;6.32;;;8.70;99.90;;;;;;5093379;27;20066;-75
2022/01/30 10:51:56;;;;;;;30.23;5.40;;;9.40;99.90;;;;;;5105453;27;20070;-74
2022/01/30 10:54:29;;;;;;;26.80;4.80;;;9.90;99.90;;;;;;5107169;27;20067;-74
2022/01/30 10:57:10;;;;;;;30.20;5.13;;;10.30;99.90;;;;;;5109791;27;20444;-74
2022/01/30 10:59:42;;;;;;;26.45;5.30;;;10.60;99.90;;;;;;5089113;27;20042;-75
2022/01/30 11:02:16;;;;;;;21.52;4.55;;;11.00;99.90;;;;;;5108759;27;20075;-75
2022/01/30 11:04:42;;;;;;;24.85;5.18;;;11.20;99.90;;;;;;5112862;27;20142;-75
2022/01/30 11:07:09;;;;;;;22.58;4.88;;;11.50;99.90;;;;;;5107878;27;20053;-73
2022/01/30 11:14:52;;;;;;;28.25;4.95;;;11.80;99.90;;;;;;5122033;27;20091;-75
2022/01/30 11:17:21;;;;;;;28.35;4.60;;;11.80;99.90;;;;;;5083433;27;20647;-74
2022/01/30 11:19:49;;;;;;;23.17;4.75;;;11.90;99.90;;;;;;5107961;27;20062;-75
2022/01/30 11:22:18;;;;;;;26.30;4.90;;;11.90;99.90;;;;;;5119637;27;20355;-74
2022/01/30 11:25:00;;;;;;;27.30;4.90;;;11.20;99.90;;;;;;5106800;27;20079;-74
2022/01/30 11:27:27;;;;;;;25.35;4.82;;;10.80;99.90;;;;;;5108587;27;20074;-75
2022/01/30 11:29:52;;;;;;;28.70;5.07;;;10.80;99.90;;;;;;5114374;27;20125;-76
2022/01/30 11:32:21;;;;;;;33.67;5.90;;;11.10;99.90;;;;;;5113491;27;20122;-75
2022/01/30 11:34:47;;;;;;;29.70;5.30;;;11.60;99.90;;;;;;5111264;27;20047;-75
2022/01/30 11:37:15;;;;;;;21.70;5.28;;;11.60;99.90;;;;;;5094941;27;20088;-75
2022/01/30 11:39:47;;;;;;;28.38;5.03;;;11.90;99.90;;;;;;5107649;27;20580;-75
2022/01/30 11:42:12;;;;;;;22.27;4.55;;;12.20;99.90;;;;;;5104275;27;20119;-75
2022/01/30 11:44:43;;;;;;;23.30;4.68;;;12.30;99.90;;;;;;5109110;27;20055;-76
2022/01/30 11:47:09;;;;;;;21.23;4.28;;;12.20;99.90;;;;;;5107468;27;20421;-75
2022/01/30 11:49:44;;;;;;;20.98;4.95;;;11.90;99.90;;;;;;5096705;27;20042;-77
2022/01/30 11:52:11;;;;;;;26.23;4.82;;;12.20;99.90;;;;;;5122303;27;20043;-79
2022/01/30 11:54:37;;;;;;;26.52;5.28;;;12.50;99.90;;;;;;5118759;27;20446;-78
2022/01/30 11:57:27;;;;;;;24.10;4.95;;;12.60;99.90;;;;;;5096449;27;20107;-79
2022/01/30 11:59:55;;;;;;;27.85;5.07;;;12.40;99.90;;;;;;5098742;27;20039;-78
2022/01/30 12:02:30;;;;;;;30.95;5.60;;;12.10;99.90;;;;;;5113833;27;20332;-77
2022/01/30 12:05:14;;;;;;;30.00;5.15;;;12.10;99.90;;;;;;5112689;27;20556;-77
2022/01/30 12:07:42;;;;;;;29.20;5.50;;;12.30;99.90;;;;;;5116466;27;20670;-77
2022/01/30 12:10:20;;;;;;;29.75;5.85;;;12.70;99.90;;;;;;5112911;27;20150;-77
2022/01/30 12:13:03;;;;;;;33.15;5.70;;;12.70;99.90;;;;;;5118418;27;20711;-77
2022/01/30 12:15:39;;;;;;;27.92;5.13;;;12.70;99.90;;;;;;5115217;27;20047;-77
2022/01/30 12:18:09;;;;;;;29.20;5.18;;;12.80;99.90;;;;;;5115540;27;20049;-78
2022/01/30 12:21:00;;;;;;;27.95;5.07;;;13.00;99.90;;;;;;5111731;27;20092;-77
2022/01/30 12:23:34;;;;;;;25.25;5.60;;;12.90;99.90;;;;;;5112327;27;20555;-77
2022/01/30 12:26:20;;;;;;;24.23;5.50;;;12.40;99.90;;;;;;5115832;27;20068;-77
2022/01/30 12:28:51;;;;;;;28.05;5.10;;;11.40;99.90;;;;;;5117870;27;20144;-76
2022/01/30 12:31:36;;;;;;;26.70;4.63;;;10.70;99.90;;;;;;5109476;27;20071;-76
2022/01/30 12:34:07;;;;;;;28.83;4.72;;;10.10;99.90;;;;;;5112194;27;20039;-76
2022/01/30 12:36:38;;;;;;;24.75;4.57;;;10.00;99.90;;;;;;5115671;27;20034;-75
2022/01/30 12:39:12;;;;;;;26.05;4.60;;;9.70;99.90;;;;;;5114800;27;20047;-76
2022/01/30 12:41:39;;;;;;;33.08;5.72;;;9.30;99.90;;;;;;5101383;28;20402;-76
2022/01/30 12:44:11;;;;;;;28.20;4.97;;;9.20;99.90;;;;;;5102404;28;20453;-77
2022/01/30 12:46:39;;;;;;;35.95;6.07;;;9.00;99.90;;;;;;5103731;28;20067;-76
2022/01/30 12:49:24;;;;;;;28.15;5.53;;;9.40;99.90;;;;;;5086611;28;20043;-77
2022/01/30 12:51:56;;;;;;;31.67;5.75;;;10.00;99.90;;;;;;5092847;28;20463;-77
2022/01/30 12:54:28;;;;;;;22.55;5.15;;;10.90;99.90;;;;;;5111429;28;20043;-78
2022/01/30 12:56:56;;;;;;;29.98;4.95;;;11.20;99.90;;;;;;5111510;28;20044;-79
2022/01/30 12:59:25;;;;;;;25.80;5.00;;;11.10;99.90;;;;;;5093803;28;20135;-78
2022/01/30 13:01:51;;;;;;;24.27;4.60;;;11.20;99.90;;;;;;5111549;28;20074;-77
2022/01/30 13:04:20;;;;;;;22.17;4.25;;;11.10;99.90;;;;;;5111086;28;20035;-77
2022/01/30 13:06:48;;;;;;;24.58;4.55;;;10.90;99.90;;;;;;5111950;28;20092;-78
2022/01/30 13:09:19;;;;;;;24.27;4.18;;;10.50;99.90;;;;;;5111010;28;20042;-76
2022/01/30 13:11:45;;;;;;;24.25;4.63;;;10.10;99.90;;;;;;5111396;28;20039;-77
2022/01/30 13:14:11;;;;;;;28.25;4.68;;;9.50;99.90;;;;;;5111237;28;20544;-76
2022/01/30 13:16:44;;;;;;;28.10;4.85;;;9.10;99.90;;;;;;5110756;28;20047;-76
2022/01/30 13:19:13;;;;;;;22.67;4.65;;;9.30;99.90;;;;;;5110733;28;20495;-76
2022/01/30 13:21:45;;;;;;;22.65;4.50;;;9.40;99.90;;;;;;5111763;28;20039;-79
2022/01/30 13:24:16;;;;;;;26.95;4.30;;;9.20;99.90;;;;;;5110841;28;20047;-75
2022/01/30 13:26:44;;;;;;;24.38;4.10;;;9.10;99.90;;;;;;5094358;28;20039;-76
2022/01/30 13:29:13;;;;;;;31.80;4.57;;;9.20;99.90;;;;;;5111716;28;20101;-75
2022/01/30 13:31:39;;;;;;;21.75;4.05;;;9.20;99.90;;;;;;5095384;28;20048;-77
2022/01/30 13:34:10;;;;;;;21.33;4.63;;;9.30;99.90;;;;;;5111451;28;20786;-77
2022/01/30 13:36:37;;;;;;;28.23;4.65;;;9.10;99.90;;;;;;5091592;28;20144;-77
2022/01/30 13:39:07;;;;;;;31.42;4.88;;;9.00;99.90;;;;;;5094420;28;20058;-76
2022/01/30 13:41:43;;;;;;;29.65;4.55;;;9.00;99.90;;;;;;5116405;27;20066;-76
2022/01/30 13:44:21;;;;;;;25.67;4.57;;;8.90;99.90;;;;;;5096732;28;20058;-76
2022/01/30 13:47:02;;;;;;;28.45;4.25;;;8.80;99.90;;;;;;5106853;27;20031;-76
2022/01/30 13:49:29;;;;;;;19.67;3.95;;;8.70;99.90;;;;;;5124886;27;20035;-76
2022/01/30 13:52:07;;;;;;;22.60;4.53;;;8.50;99.90;;;;;;5101481;27;20527;-76
2022/01/30 13:54:33;;;;;;;23.58;4.28;;;8.30;99.90;;;;;;5122292;27;20035;-76